sensor_id;sensor_type;location;lat;lon;timestamp;temperature;humidity
85138;SHT31;75497;42.708;23.330;2024-03-22T00:00:03;7.23;49.69
85138;SHT31;75497;42.708;23.330;2024-03-22T00:02:29;6.95;50.39
85138;SHT31;75497;42.708;23.330;2024-03-22T00:04:54;6.94;50.47
85138;SHT31;75497;42.708;23.330;2024-03-22T00:07:20;6.82;51.00
85138;SHT31;75497;42.708;23.330;2024-03-22T00:09:46;6.75;50.54
85138;SHT31;75497;42.708;23.330;2024-03-22T00:12:11;6.78;50.54
85138;SHT31;75497;42.708;23.330;2024-03-22T00:14:37;6.65;50.55
85138;SHT31;75497;42.708;23.330;2024-03-22T00:17:02;6.72;50.43
85138;SHT31;75497;42.708;23.330;2024-03-22T00:19:28;6.77;50.04
85138;SHT31;75497;42.708;23.330;2024-03-22T00:21:54;6.80;50.10
85138;SHT31;75497;42.708;23.330;2024-03-22T00:24:19;6.81;50.50
85138;SHT31;75497;42.708;23.330;2024-03-22T00:26:45;6.82;50.69
85138;SHT31;75497;42.708;23.330;2024-03-22T00:29:10;6.75;50.97
85138;SHT31;75497;42.708;23.330;2024-03-22T00:31:36;6.57;52.19
85138;SHT31;75497;42.708;23.330;2024-03-22T00:34:01;6.63;51.70
85138;SHT31;75497;42.708;23.330;2024-03-22T00:36:27;6.68;51.61
85138;SHT31;75497;42.708;23.330;2024-03-22T00:38:52;6.63;51.67
85138;SHT31;75497;42.708;23.330;2024-03-22T00:41:18;6.80;50.41
85138;SHT31;75497;42.708;23.330;2024-03-22T00:43:44;6.53;52.04
85138;SHT31;75497;42.708;23.330;2024-03-22T00:46:09;6.41;53.16
85138;SHT31;75497;42.708;23.330;2024-03-22T00:48:35;6.48;52.20
85138;SHT31;75497;42.708;23.330;2024-03-22T00:51:01;6.38;53.01
85138;SHT31;75497;42.708;23.330;2024-03-22T00:53:27;6.48;52.59
85138;SHT31;75497;42.708;23.330;2024-03-22T00:55:54;6.33;53.42
85138;SHT31;75497;42.708;23.330;2024-03-22T00:58:21;6.31;53.50
85138;SHT31;75497;42.708;23.330;2024-03-22T01:00:47;6.10;53.52
85138;SHT31;75497;42.708;23.330;2024-03-22T01:03:12;5.81;53.76
85138;SHT31;75497;42.708;23.330;2024-03-22T01:05:38;5.88;53.88
85138;SHT31;75497;42.708;23.330;2024-03-22T01:08:05;5.96;53.94
85138;SHT31;75497;42.708;23.330;2024-03-22T01:10:31;5.98;53.88
85138;SHT31;75497;42.708;23.330;2024-03-22T01:12:56;5.92;54.19
85138;SHT31;75497;42.708;23.330;2024-03-22T01:15:22;6.05;53.76
85138;SHT31;75497;42.708;23.330;2024-03-22T01:17:48;6.14;53.80
85138;SHT31;75497;42.708;23.330;2024-03-22T01:20:13;6.09;53.72
85138;SHT31;75497;42.708;23.330;2024-03-22T01:22:39;6.06;53.79
85138;SHT31;75497;42.708;23.330;2024-03-22T01:25:05;6.13;53.23
85138;SHT31;75497;42.708;23.330;2024-03-22T01:27:31;6.17;53.16
85138;SHT31;75497;42.708;23.330;2024-03-22T01:29:57;6.17;53.18
85138;SHT31;75497;42.708;23.330;2024-03-22T01:32:22;5.95;53.23
85138;SHT31;75497;42.708;23.330;2024-03-22T01:34:48;5.93;53.73
85138;SHT31;75497;42.708;23.330;2024-03-22T01:37:14;5.76;53.45
85138;SHT31;75497;42.708;23.330;2024-03-22T01:39:39;5.66;53.77
85138;SHT31;75497;42.708;23.330;2024-03-22T01:42:05;5.66;53.73
85138;SHT31;75497;42.708;23.330;2024-03-22T01:44:34;5.76;53.46
85138;SHT31;75497;42.708;23.330;2024-03-22T01:47:00;5.89;53.50
85138;SHT31;75497;42.708;23.330;2024-03-22T01:49:26;5.79;54.62
85138;SHT31;75497;42.708;23.330;2024-03-22T01:51:52;5.78;54.90
85138;SHT31;75497;42.708;23.330;2024-03-22T01:54:19;5.82;54.58
85138;SHT31;75497;42.708;23.330;2024-03-22T01:56:45;5.73;55.01
85138;SHT31;75497;42.708;23.330;2024-03-22T01:59:12;5.54;55.59
85138;SHT31;75497;42.708;23.330;2024-03-22T02:01:38;5.59;55.57
85138;SHT31;75497;42.708;23.330;2024-03-22T02:04:04;5.61;55.60
85138;SHT31;75497;42.708;23.330;2024-03-22T02:06:30;5.62;55.79
85138;SHT31;75497;42.708;23.330;2024-03-22T02:08:57;5.65;55.56
85138;SHT31;75497;42.708;23.330;2024-03-22T02:11:23;5.61;55.75
85138;SHT31;75497;42.708;23.330;2024-03-22T02:13:49;5.52;55.96
85138;SHT31;75497;42.708;23.330;2024-03-22T02:16:14;5.52;55.94
85138;SHT31;75497;42.708;23.330;2024-03-22T02:18:40;5.48;55.70
85138;SHT31;75497;42.708;23.330;2024-03-22T02:21:05;5.48;55.96
85138;SHT31;75497;42.708;23.330;2024-03-22T02:23:38;5.40;55.94
85138;SHT31;75497;42.708;23.330;2024-03-22T02:26:05;5.31;55.91
85138;SHT31;75497;42.708;23.330;2024-03-22T02:28:31;5.23;56.67
85138;SHT31;75497;42.708;23.330;2024-03-22T02:30:58;5.14;57.02
85138;SHT31;75497;42.708;23.330;2024-03-22T02:33:24;5.21;57.11
85138;SHT31;75497;42.708;23.330;2024-03-22T02:35:50;5.31;56.60
85138;SHT31;75497;42.708;23.330;2024-03-22T02:38:16;5.30;56.53
85138;SHT31;75497;42.708;23.330;2024-03-22T02:40:46;5.18;56.99
85138;SHT31;75497;42.708;23.330;2024-03-22T02:43:12;5.18;56.83
85138;SHT31;75497;42.708;23.330;2024-03-22T02:45:38;5.13;56.62
85138;SHT31;75497;42.708;23.330;2024-03-22T02:48:04;5.10;56.73
85138;SHT31;75497;42.708;23.330;2024-03-22T02:50:36;5.23;56.31
85138;SHT31;75497;42.708;23.330;2024-03-22T02:53:03;5.03;57.05
85138;SHT31;75497;42.708;23.330;2024-03-22T02:55:29;5.03;56.88
85138;SHT31;75497;42.708;23.330;2024-03-22T02:57:58;5.10;57.05
85138;SHT31;75497;42.708;23.330;2024-03-22T03:00:24;5.06;57.12
85138;SHT31;75497;42.708;23.330;2024-03-22T03:02:50;4.84;57.41
85138;SHT31;75497;42.708;23.330;2024-03-22T03:05:15;4.72;58.04
85138;SHT31;75497;42.708;23.330;2024-03-22T03:07:41;4.52;58.72
85138;SHT31;75497;42.708;23.330;2024-03-22T03:10:07;4.31;59.78
85138;SHT31;75497;42.708;23.330;2024-03-22T03:12:32;4.01;61.31
85138;SHT31;75497;42.708;23.330;2024-03-22T03:14:58;3.93;60.89
85138;SHT31;75497;42.708;23.330;2024-03-22T03:17:24;3.78;61.47
85138;SHT31;75497;42.708;23.330;2024-03-22T03:19:49;3.71;61.44
85138;SHT31;75497;42.708;23.330;2024-03-22T03:22:15;3.63;61.71
85138;SHT31;75497;42.708;23.330;2024-03-22T03:24:41;3.70;61.92
85138;SHT31;75497;42.708;23.330;2024-03-22T03:27:06;3.88;61.61
85138;SHT31;75497;42.708;23.330;2024-03-22T03:29:32;3.91;61.47
85138;SHT31;75497;42.708;23.330;2024-03-22T03:31:58;3.76;61.90
85138;SHT31;75497;42.708;23.330;2024-03-22T03:34:23;3.73;62.43
85138;SHT31;75497;42.708;23.330;2024-03-22T03:36:49;3.76;62.15
85138;SHT31;75497;42.708;23.330;2024-03-22T03:39:15;3.88;62.03
85138;SHT31;75497;42.708;23.330;2024-03-22T03:41:40;3.86;61.70
85138;SHT31;75497;42.708;23.330;2024-03-22T03:44:06;3.87;61.32
85138;SHT31;75497;42.708;23.330;2024-03-22T03:46:32;3.97;60.50
85138;SHT31;75497;42.708;23.330;2024-03-22T03:48:57;3.69;60.29
85138;SHT31;75497;42.708;23.330;2024-03-22T03:51:23;3.66;60.75
85138;SHT31;75497;42.708;23.330;2024-03-22T03:53:48;3.71;60.32
85138;SHT31;75497;42.708;23.330;2024-03-22T03:56:14;3.77;59.64
85138;SHT31;75497;42.708;23.330;2024-03-22T03:58:39;3.83;59.67
85138;SHT31;75497;42.708;23.330;2024-03-22T04:01:06;3.83;59.46
85138;SHT31;75497;42.708;23.330;2024-03-22T04:03:32;3.93;59.31
85138;SHT31;75497;42.708;23.330;2024-03-22T04:05:58;3.95;59.65
85138;SHT31;75497;42.708;23.330;2024-03-22T04:08:25;4.01;59.57
85138;SHT31;75497;42.708;23.330;2024-03-22T04:10:52;4.05;59.35
85138;SHT31;75497;42.708;23.330;2024-03-22T04:13:18;4.17;59.02
85138;SHT31;75497;42.708;23.330;2024-03-22T04:15:43;4.18;59.18
85138;SHT31;75497;42.708;23.330;2024-03-22T04:18:09;4.17;59.42
85138;SHT31;75497;42.708;23.330;2024-03-22T04:20:34;4.25;59.28
85138;SHT31;75497;42.708;23.330;2024-03-22T04:23:00;4.15;59.24
85138;SHT31;75497;42.708;23.330;2024-03-22T04:25:25;4.29;58.95
85138;SHT31;75497;42.708;23.330;2024-03-22T04:27:51;4.44;58.68
85138;SHT31;75497;42.708;23.330;2024-03-22T04:30:16;4.42;58.97
85138;SHT31;75497;42.708;23.330;2024-03-22T04:32:42;4.35;59.17
85138;SHT31;75497;42.708;23.330;2024-03-22T04:35:08;4.48;58.78
85138;SHT31;75497;42.708;23.330;2024-03-22T04:37:33;4.41;58.84
85138;SHT31;75497;42.708;23.330;2024-03-22T04:39:59;4.31;59.34
85138;SHT31;75497;42.708;23.330;2024-03-22T04:42:24;4.29;59.70
85138;SHT31;75497;42.708;23.330;2024-03-22T04:44:50;4.26;59.66
85138;SHT31;75497;42.708;23.330;2024-03-22T04:47:15;4.14;60.08
85138;SHT31;75497;42.708;23.330;2024-03-22T04:49:41;4.15;60.40
85138;SHT31;75497;42.708;23.330;2024-03-22T04:52:07;4.18;60.47
85138;SHT31;75497;42.708;23.330;2024-03-22T04:54:32;4.01;61.07
85138;SHT31;75497;42.708;23.330;2024-03-22T04:56:58;4.17;60.18
85138;SHT31;75497;42.708;23.330;2024-03-22T04:59:24;4.19;59.81
85138;SHT31;75497;42.708;23.330;2024-03-22T05:01:50;4.28;59.56
85138;SHT31;75497;42.708;23.330;2024-03-22T05:04:15;4.28;59.91
85138;SHT31;75497;42.708;23.330;2024-03-22T05:06:41;4.44;59.75
85138;SHT31;75497;42.708;23.330;2024-03-22T05:09:06;4.50;59.40
85138;SHT31;75497;42.708;23.330;2024-03-22T05:11:35;4.66;58.96
85138;SHT31;75497;42.708;23.330;2024-03-22T05:14:01;4.63;59.19
85138;SHT31;75497;42.708;23.330;2024-03-22T05:16:26;4.70;59.01
85138;SHT31;75497;42.708;23.330;2024-03-22T05:18:52;4.60;59.29
85138;SHT31;75497;42.708;23.330;2024-03-22T05:21:18;4.60;59.42
85138;SHT31;75497;42.708;23.330;2024-03-22T05:23:43;4.66;59.29
85138;SHT31;75497;42.708;23.330;2024-03-22T05:26:09;4.77;59.06
85138;SHT31;75497;42.708;23.330;2024-03-22T05:28:35;4.90;58.59
85138;SHT31;75497;42.708;23.330;2024-03-22T05:31:00;4.93;58.47
85138;SHT31;75497;42.708;23.330;2024-03-22T05:33:26;5.11;58.14
85138;SHT31;75497;42.708;23.330;2024-03-22T05:35:52;5.07;57.98
85138;SHT31;75497;42.708;23.330;2024-03-22T05:38:18;5.30;57.50
85138;SHT31;75497;42.708;23.330;2024-03-22T05:40:43;5.62;57.04
85138;SHT31;75497;42.708;23.330;2024-03-22T05:43:11;5.78;56.75
85138;SHT31;75497;42.708;23.330;2024-03-22T05:45:37;5.90;56.08
85138;SHT31;75497;42.708;23.330;2024-03-22T05:48:02;6.12;55.81
85138;SHT31;75497;42.708;23.330;2024-03-22T05:50:28;6.31;55.02
85138;SHT31;75497;42.708;23.330;2024-03-22T05:52:54;6.48;54.20
85138;SHT31;75497;42.708;23.330;2024-03-22T05:55:19;6.03;55.14
85138;SHT31;75497;42.708;23.330;2024-03-22T05:57:45;6.05;55.45
85138;SHT31;75497;42.708;23.330;2024-03-22T06:00:10;6.20;55.42
85138;SHT31;75497;42.708;23.330;2024-03-22T06:02:38;6.57;54.83
85138;SHT31;75497;42.708;23.330;2024-03-22T06:05:05;6.92;54.51
85138;SHT31;75497;42.708;23.330;2024-03-22T06:07:30;7.16;52.30
85138;SHT31;75497;42.708;23.330;2024-03-22T06:10:04;7.42;53.14
85138;SHT31;75497;42.708;23.330;2024-03-22T06:12:30;7.53;51.36
85138;SHT31;75497;42.708;23.330;2024-03-22T06:14:55;7.74;50.75
85138;SHT31;75497;42.708;23.330;2024-03-22T06:17:22;7.88;49.82
85138;SHT31;75497;42.708;23.330;2024-03-22T06:19:47;7.99;48.83
85138;SHT31;75497;42.708;23.330;2024-03-22T06:22:13;8.21;48.37
85138;SHT31;75497;42.708;23.330;2024-03-22T06:24:38;8.26;48.69
85138;SHT31;75497;42.708;23.330;2024-03-22T06:27:05;8.26;48.54
85138;SHT31;75497;42.708;23.330;2024-03-22T06:29:30;8.57;50.65
85138;SHT31;75497;42.708;23.330;2024-03-22T06:31:56;8.94;46.44
85138;SHT31;75497;42.708;23.330;2024-03-22T06:34:21;9.21;45.92
85138;SHT31;75497;42.708;23.330;2024-03-22T06:36:47;9.49;45.57
85138;SHT31;75497;42.708;23.330;2024-03-22T06:39:12;9.67;44.82
85138;SHT31;75497;42.708;23.330;2024-03-22T06:41:39;9.82;44.13
85138;SHT31;75497;42.708;23.330;2024-03-22T06:44:05;10.06;44.08
85138;SHT31;75497;42.708;23.330;2024-03-22T06:46:31;10.13;44.02
85138;SHT31;75497;42.708;23.330;2024-03-22T06:48:57;10.40;43.57
85138;SHT31;75497;42.708;23.330;2024-03-22T06:51:23;10.64;43.31
85138;SHT31;75497;42.708;23.330;2024-03-22T06:53:49;10.68;41.96
85138;SHT31;75497;42.708;23.330;2024-03-22T06:56:15;10.84;41.58
85138;SHT31;75497;42.708;23.330;2024-03-22T06:58:40;10.87;41.26
85138;SHT31;75497;42.708;23.330;2024-03-22T07:01:06;11.14;40.90
85138;SHT31;75497;42.708;23.330;2024-03-22T07:03:32;11.31;41.19
85138;SHT31;75497;42.708;23.330;2024-03-22T07:05:58;11.60;41.04
85138;SHT31;75497;42.708;23.330;2024-03-22T07:08:24;11.91;40.18
85138;SHT31;75497;42.708;23.330;2024-03-22T07:10:50;11.63;40.69
85138;SHT31;75497;42.708;23.330;2024-03-22T07:13:18;11.70;40.99
85138;SHT31;75497;42.708;23.330;2024-03-22T07:15:46;12.17;40.63
85138;SHT31;75497;42.708;23.330;2024-03-22T07:18:15;12.24;39.88
85138;SHT31;75497;42.708;23.330;2024-03-22T07:20:41;11.63;40.52
85138;SHT31;75497;42.708;23.330;2024-03-22T07:23:08;11.86;40.33
85138;SHT31;75497;42.708;23.330;2024-03-22T07:25:33;12.30;40.31
85138;SHT31;75497;42.708;23.330;2024-03-22T07:27:59;12.45;39.10
85138;SHT31;75497;42.708;23.330;2024-03-22T07:30:25;12.99;38.82
85138;SHT31;75497;42.708;23.330;2024-03-22T07:32:51;12.93;38.74
85138;SHT31;75497;42.708;23.330;2024-03-22T07:35:17;13.30;38.06
85138;SHT31;75497;42.708;23.330;2024-03-22T07:37:42;13.63;37.46
85138;SHT31;75497;42.708;23.330;2024-03-22T07:40:08;13.84;36.00
85138;SHT31;75497;42.708;23.330;2024-03-22T07:42:34;14.33;35.29
85138;SHT31;75497;42.708;23.330;2024-03-22T07:44:59;14.46;34.48
85138;SHT31;75497;42.708;23.330;2024-03-22T07:47:25;13.68;35.73
85138;SHT31;75497;42.708;23.330;2024-03-22T07:49:51;13.16;36.64
85138;SHT31;75497;42.708;23.330;2024-03-22T07:52:16;14.18;35.83
85138;SHT31;75497;42.708;23.330;2024-03-22T07:54:42;14.21;34.87
85138;SHT31;75497;42.708;23.330;2024-03-22T07:57:07;14.86;34.64
85138;SHT31;75497;42.708;23.330;2024-03-22T07:59:33;14.97;34.39
85138;SHT31;75497;42.708;23.330;2024-03-22T08:01:59;15.14;33.53
85138;SHT31;75497;42.708;23.330;2024-03-22T08:04:24;15.20;33.21
85138;SHT31;75497;42.708;23.330;2024-03-22T08:06:53;15.24;33.13
85138;SHT31;75497;42.708;23.330;2024-03-22T08:09:18;14.12;34.69
85138;SHT31;75497;42.708;23.330;2024-03-22T08:11:45;14.56;34.32
85138;SHT31;75497;42.708;23.330;2024-03-22T08:14:10;14.86;34.34
85138;SHT31;75497;42.708;23.330;2024-03-22T08:16:36;14.98;33.48
85138;SHT31;75497;42.708;23.330;2024-03-22T08:19:02;15.07;33.02
85138;SHT31;75497;42.708;23.330;2024-03-22T08:21:27;14.86;33.76
85138;SHT31;75497;42.708;23.330;2024-03-22T08:23:53;15.63;33.05
85138;SHT31;75497;42.708;23.330;2024-03-22T08:26:18;15.17;32.76
85138;SHT31;75497;42.708;23.330;2024-03-22T08:28:47;15.61;34.73
85138;SHT31;75497;42.708;23.330;2024-03-22T08:31:13;15.66;32.61
85138;SHT31;75497;42.708;23.330;2024-03-22T08:33:39;15.32;33.24
85138;SHT31;75497;42.708;23.330;2024-03-22T08:36:05;15.54;32.72
85138;SHT31;75497;42.708;23.330;2024-03-22T08:38:30;14.66;33.88
85138;SHT31;75497;42.708;23.330;2024-03-22T08:40:56;15.00;33.53
85138;SHT31;75497;42.708;23.330;2024-03-22T08:43:22;15.24;32.80
85138;SHT31;75497;42.708;23.330;2024-03-22T08:45:52;15.48;32.71
85138;SHT31;75497;42.708;23.330;2024-03-22T08:48:17;15.83;32.07
85138;SHT31;75497;42.708;23.330;2024-03-22T08:50:44;16.06;31.30
85138;SHT31;75497;42.708;23.330;2024-03-22T08:53:09;16.23;31.23
85138;SHT31;75497;42.708;23.330;2024-03-22T08:55:35;16.68;30.72
85138;SHT31;75497;42.708;23.330;2024-03-22T08:58:01;16.30;30.98
85138;SHT31;75497;42.708;23.330;2024-03-22T09:00:26;17.09;30.31
85138;SHT31;75497;42.708;23.330;2024-03-22T09:02:52;17.79;28.93
85138;SHT31;75497;42.708;23.330;2024-03-22T09:05:18;17.15;29.63
85138;SHT31;75497;42.708;23.330;2024-03-22T09:07:44;16.23;31.51
85138;SHT31;75497;42.708;23.330;2024-03-22T09:10:10;16.96;30.10
85138;SHT31;75497;42.708;23.330;2024-03-22T09:12:36;17.65;29.69
85138;SHT31;75497;42.708;23.330;2024-03-22T09:15:02;18.62;28.36
85138;SHT31;75497;42.708;23.330;2024-03-22T09:17:27;18.86;27.62
85138;SHT31;75497;42.708;23.330;2024-03-22T09:19:54;19.53;27.11
85138;SHT31;75497;42.708;23.330;2024-03-22T09:22:20;19.09;27.13
85138;SHT31;75497;42.708;23.330;2024-03-22T09:24:45;17.53;29.58
85138;SHT31;75497;42.708;23.330;2024-03-22T09:27:11;18.63;27.83
85138;SHT31;75497;42.708;23.330;2024-03-22T09:29:37;19.19;28.01
85138;SHT31;75497;42.708;23.330;2024-03-22T09:32:02;19.54;27.77
85138;SHT31;75497;42.708;23.330;2024-03-22T09:34:29;20.21;27.09
85138;SHT31;75497;42.708;23.330;2024-03-22T09:36:58;20.47;26.17
85138;SHT31;75497;42.708;23.330;2024-03-22T09:39:24;19.82;26.66
85138;SHT31;75497;42.708;23.330;2024-03-22T09:41:51;20.08;26.07
85138;SHT31;75497;42.708;23.330;2024-03-22T09:44:18;19.99;26.35
85138;SHT31;75497;42.708;23.330;2024-03-22T09:46:46;20.69;25.66
85138;SHT31;75497;42.708;23.330;2024-03-22T09:49:12;21.27;24.92
85138;SHT31;75497;42.708;23.330;2024-03-22T09:51:43;20.91;25.16
85138;SHT31;75497;42.708;23.330;2024-03-22T09:54:09;21.49;24.88
85138;SHT31;75497;42.708;23.330;2024-03-22T09:56:38;21.46;24.42
85138;SHT31;75497;42.708;23.330;2024-03-22T09:59:07;21.17;24.53
85138;SHT31;75497;42.708;23.330;2024-03-22T10:01:34;20.94;25.02
85138;SHT31;75497;42.708;23.330;2024-03-22T10:04:00;21.78;23.94
85138;SHT31;75497;42.708;23.330;2024-03-22T10:06:26;20.47;25.36
85138;SHT31;75497;42.708;23.330;2024-03-22T10:08:51;21.01;24.97
85138;SHT31;75497;42.708;23.330;2024-03-22T10:11:17;20.72;24.95
85138;SHT31;75497;42.708;23.330;2024-03-22T10:13:46;21.42;24.63
85138;SHT31;75497;42.708;23.330;2024-03-22T10:16:16;22.00;23.97
85138;SHT31;75497;42.708;23.330;2024-03-22T10:19:00;22.23;24.43
85138;SHT31;75497;42.708;23.330;2024-03-22T10:21:26;21.95;24.03
85138;SHT31;75497;42.708;23.330;2024-03-22T10:23:53;22.16;24.04
85138;SHT31;75497;42.708;23.330;2024-03-22T10:26:19;22.75;23.36
85138;SHT31;75497;42.708;23.330;2024-03-22T10:28:45;22.85;22.68
85138;SHT31;75497;42.708;23.330;2024-03-22T10:31:14;21.76;23.54
85138;SHT31;75497;42.708;23.330;2024-03-22T10:33:44;22.18;23.35
85138;SHT31;75497;42.708;23.330;2024-03-22T10:36:10;22.00;23.54
85138;SHT31;75497;42.708;23.330;2024-03-22T10:38:39;21.54;23.59
85138;SHT31;75497;42.708;23.330;2024-03-22T10:41:05;21.32;24.21
85138;SHT31;75497;42.708;23.330;2024-03-22T10:43:31;21.78;23.38
85138;SHT31;75497;42.708;23.330;2024-03-22T10:46:01;22.44;22.49
85138;SHT31;75497;42.708;23.330;2024-03-22T10:48:30;22.61;22.45
85138;SHT31;75497;42.708;23.330;2024-03-22T10:51:00;22.67;22.20
85138;SHT31;75497;42.708;23.330;2024-03-22T10:53:27;22.56;22.57
85138;SHT31;75497;42.708;23.330;2024-03-22T10:55:54;22.71;21.95
85138;SHT31;75497;42.708;23.330;2024-03-22T10:58:22;23.18;21.91
85138;SHT31;75497;42.708;23.330;2024-03-22T11:00:51;23.53;21.26
85138;SHT31;75497;42.708;23.330;2024-03-22T11:03:20;22.95;21.93
85138;SHT31;75497;42.708;23.330;2024-03-22T11:05:47;22.83;21.65
85138;SHT31;75497;42.708;23.330;2024-03-22T11:08:13;22.77;22.26
85138;SHT31;75497;42.708;23.330;2024-03-22T11:10:39;23.30;21.31
85138;SHT31;75497;42.708;23.330;2024-03-22T11:13:06;23.05;21.52
85138;SHT31;75497;42.708;23.330;2024-03-22T11:15:33;23.33;21.39
85138;SHT31;75497;42.708;23.330;2024-03-22T11:17:59;23.60;21.37
85138;SHT31;75497;42.708;23.330;2024-03-22T11:20:26;23.05;21.81
85138;SHT31;75497;42.708;23.330;2024-03-22T11:22:52;23.09;21.61
85138;SHT31;75497;42.708;23.330;2024-03-22T11:25:18;23.09;21.59
85138;SHT31;75497;42.708;23.330;2024-03-22T11:27:45;22.18;22.11
85138;SHT31;75497;42.708;23.330;2024-03-22T11:30:11;22.75;22.20
85138;SHT31;75497;42.708;23.330;2024-03-22T11:32:38;22.23;22.44
85138;SHT31;75497;42.708;23.330;2024-03-22T11:35:12;23.11;22.02
85138;SHT31;75497;42.708;23.330;2024-03-22T11:37:41;22.85;21.73
85138;SHT31;75497;42.708;23.330;2024-03-22T11:40:11;23.45;20.61
85138;SHT31;75497;42.708;23.330;2024-03-22T11:42:41;23.08;21.56
85138;SHT31;75497;42.708;23.330;2024-03-22T11:45:11;23.60;20.50
85138;SHT31;75497;42.708;23.330;2024-03-22T11:47:38;23.87;20.70
85138;SHT31;75497;42.708;23.330;2024-03-22T11:50:05;23.97;20.66
85138;SHT31;75497;42.708;23.330;2024-03-22T11:52:30;23.93;21.47
85138;SHT31;75497;42.708;23.330;2024-03-22T11:54:57;24.68;20.62
85138;SHT31;75497;42.708;23.330;2024-03-22T11:57:23;24.57;20.44
85138;SHT31;75497;42.708;23.330;2024-03-22T11:59:50;24.39;19.96
85138;SHT31;75497;42.708;23.330;2024-03-22T12:02:17;24.83;20.06
85138;SHT31;75497;42.708;23.330;2024-03-22T12:04:44;22.83;21.27
85138;SHT31;75497;42.708;23.330;2024-03-22T12:07:16;22.05;22.32
85138;SHT31;75497;42.708;23.330;2024-03-22T12:09:43;21.28;22.98
85138;SHT31;75497;42.708;23.330;2024-03-22T12:12:10;20.79;23.74
85138;SHT31;75497;42.708;23.330;2024-03-22T12:14:36;19.77;24.62
85138;SHT31;75497;42.708;23.330;2024-03-22T12:17:03;19.94;24.79
85138;SHT31;75497;42.708;23.330;2024-03-22T12:19:29;20.01;24.41
85138;SHT31;75497;42.708;23.330;2024-03-22T12:21:54;21.61;23.21
85138;SHT31;75497;42.708;23.330;2024-03-22T12:24:21;22.32;22.35
85138;SHT31;75497;42.708;23.330;2024-03-22T12:26:47;22.50;21.26
85138;SHT31;75497;42.708;23.330;2024-03-22T12:29:16;22.95;20.95
85138;SHT31;75497;42.708;23.330;2024-03-22T12:31:41;23.60;20.20
85138;SHT31;75497;42.708;23.330;2024-03-22T12:34:07;24.04;19.78
85138;SHT31;75497;42.708;23.330;2024-03-22T12:36:33;23.97;19.57
85138;SHT31;75497;42.708;23.330;2024-03-22T12:38:58;24.11;19.90
85138;SHT31;75497;42.708;23.330;2024-03-22T12:41:25;23.71;20.14
85138;SHT31;75497;42.708;23.330;2024-03-22T12:43:51;24.13;19.80
85138;SHT31;75497;42.708;23.330;2024-03-22T12:46:17;24.49;19.67
85138;SHT31;75497;42.708;23.330;2024-03-22T12:48:42;24.25;19.94
85138;SHT31;75497;42.708;23.330;2024-03-22T12:51:08;25.09;19.48
85138;SHT31;75497;42.708;23.330;2024-03-22T12:53:34;23.06;21.00
85138;SHT31;75497;42.708;23.330;2024-03-22T12:56:00;22.56;21.62
85138;SHT31;75497;42.708;23.330;2024-03-22T12:58:25;21.90;21.99
85138;SHT31;75497;42.708;23.330;2024-03-22T13:00:51;21.07;22.98
85138;SHT31;75497;42.708;23.330;2024-03-22T13:03:17;20.73;23.53
85138;SHT31;75497;42.708;23.330;2024-03-22T13:05:43;20.59;23.62
85138;SHT31;75497;42.708;23.330;2024-03-22T13:08:08;20.64;23.00
85138;SHT31;75497;42.708;23.330;2024-03-22T13:10:34;20.32;23.24
85138;SHT31;75497;42.708;23.330;2024-03-22T13:12:59;20.70;23.30
85138;SHT31;75497;42.708;23.330;2024-03-22T13:15:25;21.68;22.08
85138;SHT31;75497;42.708;23.330;2024-03-22T13:17:51;21.96;21.79
85138;SHT31;75497;42.708;23.330;2024-03-22T13:20:18;22.34;21.73
85138;SHT31;75497;42.708;23.330;2024-03-22T13:22:44;22.30;21.73
85138;SHT31;75497;42.708;23.330;2024-03-22T13:25:10;22.65;21.44
85138;SHT31;75497;42.708;23.330;2024-03-22T13:27:37;22.51;21.30
85138;SHT31;75497;42.708;23.330;2024-03-22T13:30:06;23.39;20.70
85138;SHT31;75497;42.708;23.330;2024-03-22T13:32:39;23.38;20.58
85138;SHT31;75497;42.708;23.330;2024-03-22T13:35:05;23.70;20.35
85138;SHT31;75497;42.708;23.330;2024-03-22T13:37:31;23.06;20.54
85138;SHT31;75497;42.708;23.330;2024-03-22T13:39:57;23.67;19.98
85138;SHT31;75497;42.708;23.330;2024-03-22T13:42:23;23.50;20.03
85138;SHT31;75497;42.708;23.330;2024-03-22T13:44:48;23.20;20.12
85138;SHT31;75497;42.708;23.330;2024-03-22T13:47:14;22.48;20.57
85138;SHT31;75497;42.708;23.330;2024-03-22T13:49:40;22.34;20.94
85138;SHT31;75497;42.708;23.330;2024-03-22T13:52:07;22.68;20.67
85138;SHT31;75497;42.708;23.330;2024-03-22T13:54:33;22.78;20.73
85138;SHT31;75497;42.708;23.330;2024-03-22T13:56:59;22.72;20.75
85138;SHT31;75497;42.708;23.330;2024-03-22T13:59:26;22.85;21.08
85138;SHT31;75497;42.708;23.330;2024-03-22T14:01:52;22.95;20.96
85138;SHT31;75497;42.708;23.330;2024-03-22T14:04:18;23.06;20.88
85138;SHT31;75497;42.708;23.330;2024-03-22T14:06:45;23.38;21.04
85138;SHT31;75497;42.708;23.330;2024-03-22T14:09:11;21.99;22.02
85138;SHT31;75497;42.708;23.330;2024-03-22T14:11:40;22.17;22.03
85138;SHT31;75497;42.708;23.330;2024-03-22T14:14:09;21.72;22.35
85138;SHT31;75497;42.708;23.330;2024-03-22T14:16:34;21.83;22.43
85138;SHT31;75497;42.708;23.330;2024-03-22T14:19:00;21.25;22.80
85138;SHT31;75497;42.708;23.330;2024-03-22T14:21:26;21.55;22.52
85138;SHT31;75497;42.708;23.330;2024-03-22T14:23:52;21.44;22.66
85138;SHT31;75497;42.708;23.330;2024-03-22T14:26:18;21.14;22.59
85138;SHT31;75497;42.708;23.330;2024-03-22T14:28:44;21.20;22.34
85138;SHT31;75497;42.708;23.330;2024-03-22T14:31:10;21.18;22.51
85138;SHT31;75497;42.708;23.330;2024-03-22T14:33:37;21.08;22.33
85138;SHT31;75497;42.708;23.330;2024-03-22T14:36:03;21.03;22.53
85138;SHT31;75497;42.708;23.330;2024-03-22T14:38:29;20.90;22.42
85138;SHT31;75497;42.708;23.330;2024-03-22T14:40:55;20.94;22.13
85138;SHT31;75497;42.708;23.330;2024-03-22T14:43:25;20.73;22.34
85138;SHT31;75497;42.708;23.330;2024-03-22T14:45:52;20.87;22.04
85138;SHT31;75497;42.708;23.330;2024-03-22T14:48:22;20.43;22.63
85138;SHT31;75497;42.708;23.330;2024-03-22T14:50:48;19.92;23.09
85138;SHT31;75497;42.708;23.330;2024-03-22T14:53:14;19.89;23.31
85138;SHT31;75497;42.708;23.330;2024-03-22T14:56:01;20.19;22.92
85138;SHT31;75497;42.708;23.330;2024-03-22T14:58:30;19.44;23.41
85138;SHT31;75497;42.708;23.330;2024-03-22T15:00:57;19.22;23.63
85138;SHT31;75497;42.708;23.330;2024-03-22T15:03:23;19.07;24.09
85138;SHT31;75497;42.708;23.330;2024-03-22T15:05:53;19.14;24.54
85138;SHT31;75497;42.708;23.330;2024-03-22T15:08:22;19.38;24.17
85138;SHT31;75497;42.708;23.330;2024-03-22T15:10:48;19.20;24.12
85138;SHT31;75497;42.708;23.330;2024-03-22T15:13:15;18.89;24.83
85138;SHT31;75497;42.708;23.330;2024-03-22T15:15:40;18.85;25.34